Cohagen, MT (59322)

9:11 AM MDT on July 30, 2014 (GMT -0600)
Wiley (KMLS) Elev 2628 ft | 46.43 °N, 105.88 °W | Change Station

Current weather conditions updated 18 minutes ago

Clear
Clear
70 °F
Feels Like 70 °F
N
0
Wind Variable Wind from North

Today is forecast to be nearly the same temperature as yesterday.

Today
High -- | Low -- °F
--% Chance of Precip.
Yesterday
High -- | Low -- °F
Precip. -- in
5:42 AM 8:41 PM
Waxing Crescent, 12% visible
Pressure 30.16 in
Visibility 10.0 miles
Clouds Clear
Dew Point 52 °F
Humidity 53%
Rainfall 0.00 in
Snow Depth Not available.
UV 3 out of 12
Pollen 7.10 out of 12
Air Quality Not available.
Flu Activity Not available.
METAR KMLS 301453Z AUTO 00000KT 10SM CLR 21/11 A3021 RMK AO2 SLP211 T02110111 51003

More Conditions Fewer Conditions

Pressure 30.16 in
Visibility 10.0 miles
Clouds Clear
Dew Point 52 °F
Humidity 53%
Rainfall 0.00 in
Snow Depth Not available.
UV 3 out of 12
Pollen 7.10 out of 12
Air Quality Not available.
Flu Activity Not available.
METAR KMLS 301453Z AUTO 00000KT 10SM CLR 21/11 A3021 RMK AO2 SLP211 T02110111 51003

More Conditions Fewer Conditions

10-Day Weather Forecast

Almanac

Astronomy

Jul. 30, 2014 Rise Set
Actual Time 5:42 AM MDT 8:41 PM MDT
Civil Twilight 5:06 AM MDT 9:17 PM MDT
Nautical Twilight 4:20 AM MDT 10:02 PM MDT
Astronomical Twilight 3:24 AM MDT 10:58 PM MDT
Moon 9:34 AM MDT 10:05 PM MDT
Length of Visible Light 16h 10m
Length of Day
14h 58m
Tomorrow will be 2m 34s shorter.
Waxing Crescent, 12% of the Moon is Illuminated
Today
Waxing Crescent
Aug 3
First Quarter
Aug 10
Full
Aug 17
Last Quarter
Aug 25
New

Today's Extremes

State Highs State Lows

Community

WunderPhotos

Upload Photos

1,739,107 photos uploaded!

WunderBlogs® & News

By Dr. Jeff Masters
Director of Meteorology, Weather Underground
By Kari Strenfel
Meteorologist, Weather Underground
By Christopher C. Burt
Weather Historian, Weather Underground
July 30, 2014
July 30, 2014
July 30, 2014

Nearby

Snow Depth

Station Depth Elevation
Crystal Lake 1 in 6050 ft
Daisy Peak 0 in 7600 ft
Cole Creek 1 in 7850 ft
Burnt Mountain 0 in 5880 ft
Spur Park 0 in 8100 ft

Earthquake Activity

City Distance Mag. Time & Date
No recent earthquake activity has been reported nearby.
Minimum magnitude displayed is 2.5.

Coastal Water Temperatures

Place Temperature
No Stations Reporting

Nearby Weather Stations

There are no personal weather stations in this area.